createdAt,value
2022-11-17T00:00:52.837Z,14.60
2022-11-17T00:03:21.393Z,14.50
2022-11-17T00:05:49.397Z,14.40
2022-11-17T00:08:19.625Z,14.40
2022-11-17T00:10:48.765Z,14.50
2022-11-17T00:13:36.326Z,14.50
2022-11-17T00:16:07.534Z,14.40
2022-11-17T00:18:53.909Z,14.50
2022-11-17T00:21:27.129Z,14.50
2022-11-17T00:23:55.628Z,14.60
2022-11-17T00:26:25.442Z,14.60
2022-11-17T00:28:56.584Z,14.20
2022-11-17T00:31:43.587Z,14.50
2022-11-17T00:34:16.391Z,14.50
2022-11-17T00:36:46.172Z,14.30
2022-11-17T00:39:16.299Z,14.40
2022-11-17T00:41:55.819Z,14.40
2022-11-17T00:44:26.324Z,14.30
2022-11-17T00:46:55.389Z,14.20
2022-11-17T00:49:25.634Z,14.40
2022-11-17T00:51:55.169Z,14.40
2022-11-17T00:54:26.198Z,14.40
2022-11-17T00:56:55.230Z,14.30
2022-11-17T00:59:23.225Z,14.30
2022-11-17T01:01:53.219Z,14.20
2022-11-17T01:04:24.418Z,14.10
2022-11-17T01:06:52.669Z,14.00
2022-11-17T01:09:23.055Z,14.10
2022-11-17T01:11:52.575Z,14.00
2022-11-17T01:14:24.628Z,14.10
2022-11-17T01:16:54.610Z,14.00
2022-11-17T01:19:26.354Z,13.90
2022-11-17T01:21:55.307Z,13.80
2022-11-17T01:24:23.670Z,13.90
2022-11-17T01:26:52.351Z,13.90
2022-11-17T01:29:20.403Z,13.80
2022-11-17T01:31:53.327Z,13.90
2022-11-17T01:34:21.528Z,13.90
2022-11-17T01:37:15.409Z,14.00
2022-11-17T01:39:44.037Z,14.10
2022-11-17T01:42:15.884Z,14.00
2022-11-17T01:45:01.866Z,14.00
2022-11-17T01:47:43.571Z,14.10
2022-11-17T01:50:25.626Z,14.00
2022-11-17T01:52:58.735Z,14.00
2022-11-17T01:55:31.707Z,14.00
2022-11-17T01:58:06.692Z,14.00
2022-11-17T02:00:35.484Z,14.00
2022-11-17T02:03:07.588Z,14.20
2022-11-17T02:05:42.587Z,13.90
2022-11-17T02:08:12.455Z,13.90
2022-11-17T02:10:41.179Z,13.80
2022-11-17T02:13:12.422Z,13.80
2022-11-17T02:15:41.333Z,13.80
2022-11-17T02:18:10.722Z,13.70
2022-11-17T02:21:03.885Z,13.70
2022-11-17T02:24:04.536Z,13.70
2022-11-17T02:26:51.654Z,13.60
2022-11-17T02:29:25.289Z,13.70
2022-11-17T02:32:04.483Z,13.50
2022-11-17T02:34:46.336Z,13.60
2022-11-17T02:37:21.588Z,13.50
2022-11-17T02:40:00.782Z,13.50
2022-11-17T02:42:56.013Z,13.50
2022-11-17T02:45:38.546Z,13.50
2022-11-17T02:48:15.242Z,13.50
2022-11-17T02:50:45.926Z,13.40
2022-11-17T02:53:15.125Z,13.40
2022-11-17T02:55:50.734Z,13.30
2022-11-17T02:58:19.040Z,13.30
2022-11-17T03:01:03.093Z,13.30
2022-11-17T03:03:51.544Z,13.40
2022-11-17T03:06:29.055Z,13.60
2022-11-17T03:09:11.963Z,13.40
2022-11-17T03:11:46.582Z,13.20
2022-11-17T03:14:28.608Z,13.30
2022-11-17T03:17:06.509Z,13.30
2022-11-17T03:19:42.895Z,13.20
2022-11-17T03:22:15.846Z,13.10
2022-11-17T03:24:52.278Z,13.00
2022-11-17T03:30:09.987Z,12.90
2022-11-17T03:32:41.777Z,12.60
2022-11-17T03:35:12.518Z,12.70
2022-11-17T03:37:47.038Z,12.70
2022-11-17T03:40:22.001Z,12.80
2022-11-17T03:42:54.366Z,13.00
2022-11-17T03:45:25.215Z,13.00
2022-11-17T03:48:01.810Z,13.00
2022-11-17T03:50:35.538Z,13.00
2022-11-17T03:53:06.337Z,12.90
2022-11-17T03:55:42.040Z,13.10
2022-11-17T03:58:16.365Z,13.00
2022-11-17T04:00:47.252Z,13.00
2022-11-17T04:03:16.906Z,13.00
2022-11-17T04:05:46.444Z,13.00
2022-11-17T04:08:22.029Z,13.10
2022-11-17T04:11:10.498Z,13.10
2022-11-17T04:16:46.777Z,13.10
2022-11-17T04:19:23.577Z,13.20
2022-11-17T04:21:54.967Z,13.10
2022-11-17T04:24:30.710Z,13.00
2022-11-17T04:27:17.219Z,12.60
2022-11-17T04:29:45.243Z,12.80
2022-11-17T04:32:14.218Z,12.90
2022-11-17T04:34:43.561Z,13.00
2022-11-17T04:37:17.704Z,12.90
2022-11-17T04:39:46.286Z,12.80
2022-11-17T04:42:14.311Z,13.00
2022-11-17T04:44:42.823Z,13.10
2022-11-17T04:47:11.259Z,13.10
2022-11-17T04:49:40.170Z,13.10
2022-11-17T04:52:09.521Z,13.10
2022-11-17T04:54:38.431Z,13.20
2022-11-17T04:57:06.900Z,13.20
2022-11-17T04:59:35.373Z,13.30
2022-11-17T05:02:06.510Z,13.20
2022-11-17T05:04:52.073Z,13.30
2022-11-17T05:07:22.355Z,13.20
2022-11-17T05:09:51.015Z,13.30
2022-11-17T05:12:44.593Z,13.10
2022-11-17T05:15:36.822Z,13.10
2022-11-17T05:18:06.442Z,13.10
2022-11-17T05:20:34.887Z,13.10
2022-11-17T05:23:22.118Z,13.10
2022-11-17T05:25:54.957Z,13.30
2022-11-17T05:28:23.460Z,13.20
2022-11-17T05:30:51.443Z,13.00
2022-11-17T05:33:20.360Z,12.90
2022-11-17T05:35:48.789Z,13.10
2022-11-17T05:38:19.353Z,13.10
2022-11-17T05:40:49.781Z,13.10
2022-11-17T05:43:20.628Z,13.30
2022-11-17T05:45:48.684Z,13.40
2022-11-17T05:48:17.183Z,13.30
2022-11-17T05:50:45.193Z,13.30
2022-11-17T05:53:13.862Z,13.50
2022-11-17T05:55:43.633Z,13.40
2022-11-17T05:58:17.541Z,13.30
2022-11-17T06:00:45.966Z,13.30
2022-11-17T06:03:17.467Z,13.20
2022-11-17T06:05:47.727Z,13.30
2022-11-17T06:08:15.896Z,13.30
2022-11-17T06:10:46.026Z,13.40
2022-11-17T06:13:14.139Z,13.30
2022-11-17T06:15:42.337Z,13.20
2022-11-17T06:18:15.965Z,13.20
2022-11-17T06:20:48.380Z,13.40
2022-11-17T06:23:18.106Z,13.40
2022-11-17T06:25:48.275Z,13.30
2022-11-17T06:28:21.169Z,13.40
2022-11-17T06:30:50.748Z,13.40
2022-11-17T06:33:20.562Z,13.50
2022-11-17T06:35:50.860Z,13.60
2022-11-17T06:38:18.873Z,13.70
2022-11-17T06:40:48.207Z,13.40
2022-11-17T06:43:18.862Z,13.30
2022-11-17T06:45:48.046Z,13.30
2022-11-17T06:48:27.241Z,13.70
2022-11-17T06:50:56.430Z,13.60
2022-11-17T06:53:26.415Z,13.70
2022-11-17T06:56:02.656Z,13.50
2022-11-17T06:58:31.301Z,13.50
2022-11-17T07:01:03.377Z,13.50
2022-11-17T07:03:32.367Z,13.30
2022-11-17T07:06:01.694Z,13.10
2022-11-17T07:08:31.536Z,13.30
2022-11-17T07:11:08.313Z,13.20
2022-11-17T07:13:37.404Z,13.50
2022-11-17T07:16:08.115Z,13.30
2022-11-17T07:18:37.177Z,13.30
2022-11-17T07:21:07.658Z,13.50
2022-11-17T07:23:38.621Z,13.60
2022-11-17T07:26:08.838Z,13.40
2022-11-17T07:28:39.212Z,13.40
2022-11-17T07:31:12.851Z,13.80
2022-11-17T07:33:40.866Z,14.00
2022-11-17T07:36:13.222Z,13.70
2022-11-17T07:38:41.620Z,13.70
2022-11-17T07:41:13.586Z,13.40
2022-11-17T07:43:41.938Z,13.30
2022-11-17T07:46:20.601Z,13.40
2022-11-17T07:48:48.645Z,13.60
2022-11-17T07:51:17.384Z,13.70
2022-11-17T07:53:45.823Z,13.50
2022-11-17T07:56:17.867Z,13.70
2022-11-17T07:58:46.508Z,13.60
2022-11-17T08:01:16.027Z,13.40
2022-11-17T08:03:45.955Z,13.60
2022-11-17T08:06:14.806Z,13.70
2022-11-17T08:08:50.908Z,13.60
2022-11-17T08:11:23.098Z,13.80
2022-11-17T08:13:53.473Z,13.90
2022-11-17T08:16:21.951Z,13.60
2022-11-17T08:18:52.596Z,13.30
2022-11-17T08:21:21.093Z,13.20
2022-11-17T08:23:53.892Z,13.60
2022-11-17T08:26:25.929Z,13.80
2022-11-17T08:28:59.030Z,13.50
2022-11-17T08:31:28.169Z,13.20
2022-11-17T08:33:56.214Z,13.30
2022-11-17T08:36:24.619Z,12.80
2022-11-17T08:38:52.671Z,12.80
2022-11-17T08:41:23.993Z,12.70
2022-11-17T08:43:53.935Z,12.40
2022-11-17T08:46:21.922Z,12.10
2022-11-17T08:48:53.886Z,12.10
2022-11-17T08:51:27.070Z,12.10
2022-11-17T08:53:58.047Z,12.40
2022-11-17T08:56:29.642Z,12.30
2022-11-17T08:59:02.881Z,12.50
2022-11-17T09:01:31.309Z,12.30
2022-11-17T09:03:59.458Z,12.20
2022-11-17T09:06:27.939Z,12.30
2022-11-17T09:08:59.093Z,12.40
2022-11-17T09:11:27.662Z,12.40
2022-11-17T09:13:55.685Z,12.60
2022-11-17T09:16:25.777Z,12.90
2022-11-17T09:18:56.834Z,13.10
2022-11-17T09:21:27.450Z,13.00
2022-11-17T09:23:55.770Z,13.00
2022-11-17T09:26:26.151Z,13.00
2022-11-17T09:28:54.892Z,13.10
2022-11-17T09:31:24.776Z,13.30
2022-11-17T09:33:53.737Z,13.50
2022-11-17T09:36:22.589Z,13.50
2022-11-17T09:38:50.951Z,13.40
2022-11-17T09:41:24.950Z,13.50
2022-11-17T09:44:00.482Z,13.50
2022-11-17T09:46:46.795Z,13.30
2022-11-17T09:49:24.214Z,13.30
2022-11-17T09:51:55.401Z,13.50
2022-11-17T09:54:30.131Z,13.20
2022-11-17T09:57:00.574Z,13.00
2022-11-17T10:02:16.099Z,13.40
2022-11-17T10:04:44.174Z,13.50
2022-11-17T10:07:13.551Z,13.50
2022-11-17T10:09:45.283Z,13.40
2022-11-17T10:12:19.339Z,13.30
2022-11-17T10:14:50.023Z,13.30
2022-11-17T10:17:20.145Z,13.50
2022-11-17T10:19:48.195Z,13.30
2022-11-17T10:22:33.569Z,13.30
2022-11-17T10:25:01.717Z,13.30
2022-11-17T10:27:31.951Z,13.40
2022-11-17T10:30:02.297Z,13.80
2022-11-17T10:32:33.721Z,13.80
2022-11-17T10:35:19.031Z,14.00
2022-11-17T10:37:57.444Z,13.80
2022-11-17T10:40:27.768Z,13.40
2022-11-17T10:43:03.509Z,13.50
2022-11-17T10:45:32.730Z,13.30
2022-11-17T10:48:24.099Z,13.40
2022-11-17T10:50:54.612Z,13.50
2022-11-17T10:53:46.693Z,13.40
2022-11-17T10:56:18.369Z,13.40
2022-11-17T10:58:59.827Z,13.70
2022-11-17T11:01:31.211Z,13.60
2022-11-17T11:04:04.690Z,13.60
2022-11-17T11:06:35.254Z,13.60
2022-11-17T11:09:12.692Z,13.70
2022-11-17T11:11:45.321Z,13.40
2022-11-17T11:14:21.806Z,13.90
2022-11-17T11:16:58.825Z,13.60
2022-11-17T11:19:31.222Z,13.90
2022-11-17T11:22:27.251Z,13.80
2022-11-17T11:25:04.098Z,13.50
2022-11-17T11:27:48.614Z,13.60
2022-11-17T11:30:21.416Z,13.80
2022-11-17T11:33:15.052Z,14.00
2022-11-17T11:36:01.888Z,14.10
2022-11-17T11:38:54.212Z,13.90
2022-11-17T11:41:45.385Z,13.90
2022-11-17T11:44:35.146Z,13.70
2022-11-17T11:47:11.317Z,13.70
2022-11-17T11:49:46.948Z,13.50
2022-11-17T11:52:22.075Z,13.50
2022-11-17T11:54:55.146Z,13.50
2022-11-17T11:57:30.941Z,13.60
2022-11-17T12:00:04.775Z,13.60
2022-11-17T12:02:44.061Z,13.50
2022-11-17T12:05:21.738Z,14.10
2022-11-17T12:07:58.852Z,14.30
2022-11-17T12:10:33.327Z,14.60
2022-11-17T12:13:02.874Z,15.10
2022-11-17T12:15:37.044Z,14.80
2022-11-17T12:18:13.945Z,15.20
2022-11-17T12:21:02.946Z,15.10
2022-11-17T12:23:48.344Z,15.30
2022-11-17T12:26:29.547Z,15.00
2022-11-17T12:29:32.631Z,14.80
2022-11-17T12:32:02.860Z,14.70
2022-11-17T12:34:33.589Z,14.60
2022-11-17T12:37:26.594Z,14.20
2022-11-17T12:40:08.831Z,14.10
2022-11-17T12:42:38.055Z,14.30
2022-11-17T12:45:11.896Z,14.20
2022-11-17T12:47:42.265Z,13.70
2022-11-17T12:50:38.052Z,14.10
2022-11-17T12:53:32.842Z,13.80
2022-11-17T12:56:31.138Z,14.00
2022-11-17T12:59:33.006Z,14.20
2022-11-17T13:02:11.672Z,14.10
2022-11-17T13:04:49.455Z,14.10
2022-11-17T13:07:23.475Z,14.40
2022-11-17T13:09:53.914Z,14.60
2022-11-17T13:12:26.733Z,14.40
2022-11-17T13:14:56.637Z,14.40
2022-11-17T13:17:29.875Z,14.40
2022-11-17T13:20:02.846Z,14.50
2022-11-17T13:22:31.517Z,14.20
2022-11-17T13:25:12.667Z,14.50
2022-11-17T13:27:49.396Z,14.30
2022-11-17T13:30:30.562Z,14.30
2022-11-17T13:33:02.821Z,14.40
2022-11-17T13:35:32.394Z,14.60
2022-11-17T13:38:06.766Z,14.60
2022-11-17T13:40:39.408Z,14.70
2022-11-17T13:43:13.842Z,14.30
2022-11-17T13:45:43.258Z,14.60
2022-11-17T13:48:33.731Z,14.60
2022-11-17T13:51:22.501Z,14.10
2022-11-17T13:53:54.481Z,14.40
2022-11-17T13:56:29.395Z,14.60
2022-11-17T13:59:01.691Z,14.70
2022-11-17T14:01:33.019Z,14.80
2022-11-17T14:04:20.307Z,15.00
2022-11-17T14:06:57.525Z,14.80
2022-11-17T14:09:29.467Z,15.00
2022-11-17T14:14:46.038Z,14.70
2022-11-17T14:17:20.930Z,14.60
2022-11-17T14:19:49.663Z,14.60
2022-11-17T14:22:33.740Z,14.60
2022-11-17T14:25:01.863Z,14.60
2022-11-17T14:27:42.648Z,14.50
2022-11-17T14:30:17.024Z,14.60
2022-11-17T14:32:46.003Z,14.80
2022-11-17T14:37:47.425Z,15.00
2022-11-17T14:40:17.522Z,15.20
2022-11-17T14:42:46.169Z,15.10
2022-11-17T14:45:17.738Z,15.10
2022-11-17T14:47:49.362Z,15.30
2022-11-17T14:50:26.129Z,15.40
2022-11-17T14:52:54.596Z,15.40
2022-11-17T14:55:22.674Z,15.20
2022-11-17T14:57:50.751Z,15.10
2022-11-17T15:00:21.207Z,15.00
2022-11-17T15:02:52.194Z,15.10
2022-11-17T15:05:20.406Z,15.30
2022-11-17T15:07:48.578Z,15.50
2022-11-17T15:10:17.452Z,15.60
2022-11-17T15:12:47.484Z,15.70
2022-11-17T15:15:15.934Z,15.70
2022-11-17T15:17:45.963Z,15.50
2022-11-17T15:20:14.209Z,15.40
2022-11-17T15:22:42.337Z,15.20
2022-11-17T15:25:13.564Z,15.40
2022-11-17T15:27:47.554Z,15.50
2022-11-17T15:30:16.891Z,15.50
2022-11-17T15:32:46.240Z,15.40
2022-11-17T15:35:15.190Z,15.20
2022-11-17T15:37:43.566Z,15.00
2022-11-17T15:40:19.109Z,15.00
2022-11-17T15:42:47.541Z,15.00
2022-11-17T15:45:18.355Z,15.00
2022-11-17T15:47:47.880Z,15.00
2022-11-17T15:50:17.337Z,14.90
2022-11-17T15:55:35.367Z,15.00
2022-11-17T15:58:04.157Z,15.00
2022-11-17T16:00:34.309Z,15.20
2022-11-17T16:03:06.724Z,15.30
2022-11-17T16:05:34.757Z,15.40
2022-11-17T16:08:02.733Z,15.50
2022-11-17T16:10:31.704Z,15.60
2022-11-17T16:12:59.690Z,15.60
2022-11-17T16:15:30.953Z,15.60
2022-11-17T16:18:02.169Z,15.40
2022-11-17T16:20:34.114Z,15.70
2022-11-17T16:23:03.386Z,15.50
2022-11-17T16:25:32.062Z,15.50
2022-11-17T16:28:07.613Z,15.50
2022-11-17T16:30:36.935Z,15.60
2022-11-17T16:33:10.588Z,15.70
2022-11-17T16:35:44.001Z,15.60
2022-11-17T16:38:17.727Z,15.60
2022-11-17T16:40:46.292Z,15.40
2022-11-17T16:43:17.114Z,15.50
2022-11-17T16:46:16.373Z,15.20
2022-11-17T16:48:44.395Z,15.10
2022-11-17T16:51:14.128Z,14.80
2022-11-17T16:53:42.976Z,15.00
2022-11-17T16:56:12.938Z,15.20
2022-11-17T16:58:41.602Z,15.30
2022-11-17T17:01:14.434Z,15.40
2022-11-17T17:03:45.474Z,15.50
2022-11-17T17:06:18.094Z,15.50
2022-11-17T17:08:46.220Z,15.70
2022-11-17T17:11:17.726Z,15.70
2022-11-17T17:13:46.137Z,15.60
2022-11-17T17:16:17.928Z,15.60
2022-11-17T17:18:49.388Z,15.60
2022-11-17T17:21:20.354Z,15.60
2022-11-17T17:23:49.340Z,15.10
2022-11-17T17:26:21.648Z,14.00
2022-11-17T17:28:52.155Z,14.20
2022-11-17T17:31:24.577Z,14.40
2022-11-17T17:33:53.902Z,14.40
2022-11-17T17:36:26.731Z,14.60
2022-11-17T17:38:57.597Z,14.70
2022-11-17T17:41:27.743Z,14.70
2022-11-17T17:44:04.903Z,14.60
2022-11-17T17:46:38.605Z,13.90
2022-11-17T17:49:07.725Z,14.10
2022-11-17T17:51:41.546Z,13.80
2022-11-17T17:54:16.102Z,13.80
2022-11-17T17:56:44.333Z,13.60
2022-11-17T17:59:13.174Z,13.80
2022-11-17T18:01:46.414Z,13.60
2022-11-17T18:04:16.524Z,13.70
2022-11-17T18:06:48.587Z,13.50
2022-11-17T18:09:19.479Z,13.80
2022-11-17T18:11:51.799Z,14.00
2022-11-17T18:14:24.158Z,14.00
2022-11-17T18:16:56.719Z,14.00
2022-11-17T18:19:32.552Z,14.20
2022-11-17T18:22:03.117Z,14.40
2022-11-17T18:24:31.224Z,14.50
2022-11-17T18:27:00.315Z,14.60
2022-11-17T18:29:31.477Z,14.60
2022-11-17T18:32:00.656Z,14.60
2022-11-17T18:34:28.645Z,14.50
2022-11-17T18:36:57.113Z,14.50
2022-11-17T18:39:28.199Z,14.40
2022-11-17T18:41:57.331Z,14.40
2022-11-17T18:44:25.396Z,14.70
2022-11-17T18:46:57.073Z,14.80
2022-11-17T18:49:31.275Z,14.70
2022-11-17T18:52:04.145Z,14.90
2022-11-17T18:54:34.071Z,14.80
2022-11-17T18:57:02.440Z,14.70
2022-11-17T18:59:30.461Z,14.80
2022-11-17T19:01:59.443Z,14.50
2022-11-17T19:04:28.754Z,14.50
2022-11-17T19:06:57.468Z,14.40
2022-11-17T19:09:25.533Z,14.30
2022-11-17T19:11:55.522Z,14.30
2022-11-17T19:14:25.852Z,14.20
2022-11-17T19:17:00.458Z,14.10
2022-11-17T19:19:31.081Z,13.60
2022-11-17T19:21:59.131Z,13.70
2022-11-17T19:24:29.218Z,13.50
2022-11-17T19:26:59.171Z,13.70
2022-11-17T19:29:31.202Z,13.60
2022-11-17T19:31:59.711Z,13.60
2022-11-17T19:34:27.730Z,13.70
2022-11-17T19:36:55.938Z,13.60
2022-11-17T19:39:24.399Z,13.40
2022-11-17T19:41:53.251Z,13.40
2022-11-17T19:44:22.619Z,13.40
2022-11-17T19:46:51.043Z,13.50
2022-11-17T19:49:19.263Z,13.40
2022-11-17T19:51:47.580Z,13.40
2022-11-17T19:54:22.922Z,13.50
2022-11-17T19:56:53.650Z,13.60
2022-11-17T19:59:25.319Z,13.70
2022-11-17T20:01:54.833Z,13.50
2022-11-17T20:04:34.512Z,13.40
2022-11-17T20:07:03.682Z,13.60
2022-11-17T20:09:31.704Z,13.90
2022-11-17T20:12:02.462Z,14.00
2022-11-17T20:14:34.098Z,13.80
2022-11-17T20:17:02.807Z,13.80
2022-11-17T20:19:34.200Z,13.90
2022-11-17T20:22:02.371Z,13.70
2022-11-17T20:24:30.370Z,13.60
2022-11-17T20:26:58.925Z,13.40
2022-11-17T20:29:28.969Z,13.50
2022-11-17T20:32:01.855Z,13.50
2022-11-17T20:34:30.288Z,13.40
2022-11-17T20:36:58.344Z,13.60
2022-11-17T20:39:26.926Z,13.70
2022-11-17T20:41:55.590Z,13.40
2022-11-17T20:44:26.562Z,13.60
2022-11-17T20:46:56.956Z,13.40
2022-11-17T20:49:28.103Z,13.40
2022-11-17T20:51:56.979Z,13.20
2022-11-17T20:54:24.962Z,13.10
2022-11-17T20:56:53.163Z,13.40
2022-11-17T20:59:22.230Z,13.30
2022-11-17T21:01:50.508Z,13.20
2022-11-17T21:04:18.557Z,13.20
2022-11-17T21:06:48.778Z,13.30
2022-11-17T21:09:17.013Z,13.40
2022-11-17T21:12:00.214Z,13.40
2022-11-17T21:14:31.705Z,13.50
2022-11-17T21:17:01.560Z,13.40
2022-11-17T21:19:31.064Z,13.50
2022-11-17T21:22:03.128Z,13.40
2022-11-17T21:24:31.293Z,13.40
2022-11-17T21:27:02.113Z,13.40
2022-11-17T21:29:33.402Z,13.60
2022-11-17T21:32:01.549Z,13.80
2022-11-17T21:34:30.798Z,13.80
2022-11-17T21:37:01.955Z,13.80
2022-11-17T21:39:33.726Z,13.90
2022-11-17T21:42:02.203Z,13.90
2022-11-17T21:44:30.234Z,13.60
2022-11-17T21:46:58.701Z,13.50
2022-11-17T21:49:26.718Z,13.70
2022-11-17T21:51:55.366Z,13.80
2022-11-17T21:54:24.001Z,14.00
2022-11-17T21:56:53.958Z,13.90
2022-11-17T21:59:22.100Z,14.00
2022-11-17T22:01:56.449Z,13.90
2022-11-17T22:04:25.099Z,13.90
2022-11-17T22:06:53.507Z,13.90
2022-11-17T22:09:29.500Z,13.90
2022-11-17T22:11:59.660Z,14.00
2022-11-17T22:14:30.038Z,13.90
2022-11-17T22:16:58.181Z,13.70
2022-11-17T22:19:29.609Z,13.70
2022-11-17T22:21:57.684Z,13.80
2022-11-17T22:24:25.911Z,13.80
2022-11-17T22:26:54.802Z,13.70
2022-11-17T22:29:26.482Z,13.70
2022-11-17T22:31:54.873Z,13.70
2022-11-17T22:34:23.417Z,13.80
2022-11-17T22:36:54.839Z,13.80
2022-11-17T22:39:23.077Z,13.90
2022-11-17T22:41:51.354Z,13.80
2022-11-17T22:44:19.538Z,13.60
2022-11-17T22:46:49.690Z,13.70
2022-11-17T22:49:18.186Z,13.70
2022-11-17T22:52:04.878Z,13.80
2022-11-17T22:54:33.528Z,13.90
2022-11-17T22:57:04.466Z,13.90
2022-11-17T22:59:34.579Z,14.10
2022-11-17T23:02:04.138Z,14.20
2022-11-17T23:04:37.669Z,14.30
2022-11-17T23:07:05.824Z,14.50
2022-11-17T23:09:33.993Z,14.60
2022-11-17T23:12:02.593Z,14.70
2022-11-17T23:14:30.598Z,14.70
2022-11-17T23:16:58.884Z,14.80
2022-11-17T23:19:30.723Z,14.90
2022-11-17T23:21:59.136Z,14.70
2022-11-17T23:24:27.126Z,14.60
2022-11-17T23:26:58.498Z,14.40
2022-11-17T23:29:27.425Z,14.40
2022-11-17T23:31:57.457Z,14.40
2022-11-17T23:34:28.037Z,14.20
2022-11-17T23:37:00.805Z,14.00
2022-11-17T23:39:32.723Z,13.40
2022-11-17T23:42:03.046Z,13.50
2022-11-17T23:44:31.327Z,13.50
2022-11-17T23:46:59.730Z,13.40
2022-11-17T23:49:30.808Z,13.40
2022-11-17T23:51:59.917Z,13.30
2022-11-17T23:54:28.330Z,13.30
2022-11-17T23:57:04.318Z,13.30
2022-11-17T23:59:33.353Z,13.50
